createdAt,value
2022-12-08T00:00:22.951Z,98.52
2022-12-08T00:05:42.827Z,98.48
2022-12-08T00:10:49.789Z,98.66
2022-12-08T00:15:51.628Z,98.42
2022-12-08T00:20:57.415Z,98.75
2022-12-08T00:26:03.737Z,98.73
2022-12-08T00:31:10.827Z,98.46
2022-12-08T00:36:14.317Z,98.50
2022-12-08T00:41:18.993Z,98.80
2022-12-08T00:46:20.699Z,98.77
2022-12-08T00:51:22.341Z,99.04
2022-12-08T00:56:25.524Z,98.88
2022-12-08T01:01:27.910Z,98.83
2022-12-08T01:06:29.565Z,98.77
2022-12-08T01:11:31.553Z,98.94
2022-12-08T01:16:35.702Z,98.61
2022-12-08T01:21:37.314Z,98.77
2022-12-08T01:26:38.990Z,98.87
2022-12-08T01:31:40.614Z,98.73
2022-12-08T01:36:44.261Z,98.82
2022-12-08T01:41:47.662Z,98.73
2022-12-08T01:46:49.739Z,98.88
2022-12-08T01:52:09.625Z,99.01
2022-12-08T01:57:23.158Z,98.89
2022-12-08T02:02:34.193Z,98.87
2022-12-08T02:07:36.100Z,98.74
2022-12-08T02:12:37.941Z,99.15
2022-12-08T02:17:54.214Z,98.82
2022-12-08T02:23:12.405Z,99.08
2022-12-08T02:28:28.930Z,99.30
2022-12-08T02:34:08.122Z,98.90
2022-12-08T02:39:28.034Z,98.98
2022-12-08T02:44:41.325Z,98.71
2022-12-08T02:49:43.480Z,99.06
2022-12-08T02:54:50.362Z,98.67
2022-12-08T03:00:18.386Z,98.81
2022-12-08T03:05:49.150Z,98.70
2022-12-08T03:11:01.259Z,98.75
2022-12-08T03:16:07.112Z,98.62
2022-12-08T03:21:10.210Z,98.95
2022-12-08T03:26:23.585Z,98.67
2022-12-08T03:31:29.976Z,98.94
2022-12-08T03:36:32.055Z,98.57
2022-12-08T03:41:33.535Z,98.69
2022-12-08T03:46:35.008Z,98.85
2022-12-08T03:51:36.511Z,98.54
2022-12-08T03:56:39.287Z,98.77
2022-12-08T04:01:40.878Z,98.85
2022-12-08T04:06:42.489Z,98.53
2022-12-08T04:11:44.051Z,98.53
2022-12-08T04:16:45.983Z,98.24
2022-12-08T04:21:47.470Z,98.74
2022-12-08T04:26:49.778Z,98.96
2022-12-08T04:31:51.402Z,98.69
2022-12-08T04:36:52.911Z,98.26
2022-12-08T04:41:54.724Z,98.54
2022-12-08T04:46:56.601Z,98.57
2022-12-08T04:51:58.117Z,98.58
2022-12-08T04:56:59.792Z,98.62
2022-12-08T05:02:01.506Z,98.71
2022-12-08T05:07:03.359Z,98.69
2022-12-08T05:12:05.343Z,98.48
2022-12-08T05:17:09.760Z,98.53
2022-12-08T05:22:11.950Z,98.69
2022-12-08T05:27:13.403Z,98.46
2022-12-08T05:32:14.914Z,98.72
2022-12-08T05:37:16.727Z,98.66
2022-12-08T05:42:24.430Z,98.63
2022-12-08T05:47:28.856Z,98.34
2022-12-08T05:52:33.059Z,98.54
2022-12-08T05:57:34.501Z,98.35
2022-12-08T06:02:36.335Z,98.38
2022-12-08T06:07:38.593Z,98.38
2022-12-08T06:12:40.479Z,98.31
2022-12-08T06:17:41.933Z,98.39
2022-12-08T06:22:43.437Z,98.67
2022-12-08T06:27:44.906Z,98.56
2022-12-08T06:32:46.402Z,98.39
2022-12-08T06:37:47.933Z,98.25
2022-12-08T06:42:49.517Z,98.38
2022-12-08T06:47:51.251Z,98.18
2022-12-08T06:53:01.058Z,98.37
2022-12-08T06:58:06.171Z,98.10
2022-12-08T07:03:09.309Z,98.20
2022-12-08T07:08:10.890Z,98.21
2022-12-08T07:13:12.427Z,98.28
2022-12-08T07:18:14.341Z,98.33
2022-12-08T07:23:16.382Z,98.29
2022-12-08T07:28:17.838Z,98.24
2022-12-08T07:33:19.378Z,98.43
2022-12-08T07:38:20.875Z,98.18
2022-12-08T07:43:23.351Z,98.09
2022-12-08T07:48:24.800Z,98.27
2022-12-08T07:53:26.330Z,98.43
2022-12-08T07:58:27.791Z,98.09
2022-12-08T08:03:29.336Z,98.05
2022-12-08T08:08:31.566Z,98.21
2022-12-08T08:13:33.810Z,98.24
2022-12-08T08:18:37.579Z,97.99
2022-12-08T08:23:39.329Z,98.23
2022-12-08T08:28:40.883Z,98.12
2022-12-08T08:33:42.350Z,98.06
2022-12-08T08:38:44.217Z,98.01
2022-12-08T08:43:45.845Z,97.97
2022-12-08T08:48:47.537Z,98.13
2022-12-08T08:53:49.419Z,97.80
2022-12-08T08:58:53.183Z,98.34
2022-12-08T09:03:56.178Z,97.76
2022-12-08T09:08:57.741Z,98.04
2022-12-08T09:13:59.321Z,97.94
2022-12-08T09:19:02.241Z,97.88
2022-12-08T09:24:04.178Z,97.70
2022-12-08T09:29:05.743Z,98.01
2022-12-08T09:34:07.540Z,98.16
2022-12-08T09:39:09.380Z,98.21
2022-12-08T09:44:22.791Z,97.92
2022-12-08T09:49:38.198Z,97.99
2022-12-08T09:54:39.924Z,98.27
2022-12-08T09:59:47.767Z,98.28
2022-12-08T10:04:49.309Z,98.51
2022-12-08T10:10:20.681Z,98.51
2022-12-08T10:15:41.611Z,98.19
2022-12-08T10:20:45.263Z,97.99
2022-12-08T10:25:56.509Z,98.03
2022-12-08T10:30:58.294Z,98.21
2022-12-08T10:36:04.873Z,97.83
2022-12-08T10:41:11.451Z,97.61
2022-12-08T10:46:16.812Z,97.67
2022-12-08T10:51:24.542Z,97.34
2022-12-08T10:56:28.993Z,97.21
2022-12-08T11:01:37.954Z,97.04
2022-12-08T11:06:41.066Z,96.60
2022-12-08T11:11:51.543Z,96.16
2022-12-08T11:16:56.889Z,95.59
2022-12-08T11:21:58.758Z,95.16
2022-12-08T11:27:03.381Z,94.77
2022-12-08T11:32:12.539Z,94.43
2022-12-08T11:37:34.474Z,94.29
2022-12-08T11:42:53.405Z,93.79
2022-12-08T11:48:19.409Z,93.40
2022-12-08T11:53:29.051Z,93.29
2022-12-08T11:58:44.454Z,92.99
2022-12-08T12:03:53.690Z,92.72
2022-12-08T12:09:11.776Z,92.49
2022-12-08T12:14:28.566Z,92.29
2022-12-08T12:19:35.663Z,91.69
2022-12-08T12:24:39.016Z,91.28
2022-12-08T12:29:55.556Z,90.95
2022-12-08T12:35:00.421Z,90.71
2022-12-08T12:40:06.282Z,90.31
2022-12-08T12:45:16.943Z,90.14
2022-12-08T12:50:33.903Z,89.85
2022-12-08T12:55:59.889Z,89.90
2022-12-08T13:01:10.531Z,89.49
2022-12-08T13:06:15.226Z,89.40
2022-12-08T13:11:17.101Z,89.32
2022-12-08T13:16:24.134Z,89.20
2022-12-08T13:21:33.096Z,89.27
2022-12-08T13:26:44.498Z,89.35
2022-12-08T13:31:56.216Z,89.21
2022-12-08T13:37:15.897Z,89.23
2022-12-08T13:42:33.592Z,89.37
2022-12-08T13:48:13.613Z,89.30
2022-12-08T13:58:43.318Z,89.70
2022-12-08T14:04:20.428Z,89.58
2022-12-08T14:09:16.008Z,89.74
2022-12-08T14:14:45.799Z,89.89
2022-12-08T14:19:45.294Z,89.85
2022-12-08T14:24:48.844Z,89.78
2022-12-08T14:29:53.995Z,90.16
2022-12-08T14:34:57.366Z,90.12
2022-12-08T14:40:04.050Z,90.14
2022-12-08T14:45:11.286Z,90.73
2022-12-08T14:50:42.694Z,90.38
2022-12-08T14:55:47.479Z,90.61
2022-12-08T15:00:52.266Z,90.78
2022-12-08T15:05:58.522Z,90.88
2022-12-08T15:11:21.680Z,91.07
2022-12-08T15:16:42.788Z,91.60
2022-12-08T15:21:45.917Z,91.38
2022-12-08T15:26:49.928Z,91.75
2022-12-08T15:31:53.761Z,91.68
2022-12-08T15:36:55.367Z,92.18
2022-12-08T15:41:56.938Z,92.09
2022-12-08T15:46:59.382Z,92.14
2022-12-08T15:52:11.175Z,92.28
2022-12-08T15:57:29.722Z,92.85
2022-12-08T16:03:13.155Z,92.61
2022-12-08T16:08:11.927Z,92.80
2022-12-08T16:13:56.847Z,93.19
2022-12-08T16:18:59.239Z,93.36
2022-12-08T16:24:05.975Z,93.20
2022-12-08T16:29:18.866Z,93.33
2022-12-08T16:34:20.335Z,93.80
2022-12-08T16:39:21.871Z,93.44
2022-12-08T16:44:23.416Z,94.09
2022-12-08T16:49:24.892Z,94.11
2022-12-08T16:54:26.352Z,94.16
2022-12-08T16:59:27.834Z,94.16
2022-12-08T17:04:32.166Z,94.63
2022-12-08T17:09:34.044Z,94.53
2022-12-08T17:14:35.563Z,94.75
2022-12-08T17:19:37.579Z,94.98
2022-12-08T17:24:39.103Z,95.13
2022-12-08T17:29:40.601Z,95.29
2022-12-08T17:34:42.162Z,95.28
2022-12-08T17:39:43.690Z,95.60
2022-12-08T17:44:46.547Z,95.37
2022-12-08T17:49:48.057Z,95.84
2022-12-08T17:54:49.642Z,95.88
2022-12-08T17:59:51.096Z,95.84
2022-12-08T18:04:52.902Z,96.37
2022-12-08T18:09:54.777Z,96.21
2022-12-08T18:14:56.368Z,96.28
2022-12-08T18:19:57.946Z,96.33
2022-12-08T18:24:59.501Z,96.64
2022-12-08T18:30:01.909Z,96.49
2022-12-08T18:35:03.694Z,96.46
2022-12-08T18:40:05.925Z,96.64
2022-12-08T18:45:08.279Z,96.78
2022-12-08T18:50:11.698Z,96.82
2022-12-08T18:55:13.675Z,96.93
2022-12-08T19:00:18.062Z,96.83
2022-12-08T19:05:19.762Z,97.30
2022-12-08T19:10:21.333Z,97.09
2022-12-08T19:15:22.947Z,96.89
2022-12-08T19:20:24.482Z,97.25
2022-12-08T19:25:27.178Z,97.40
2022-12-08T19:30:28.693Z,97.53
2022-12-08T19:35:30.219Z,97.57
2022-12-08T19:40:50.690Z,97.67
2022-12-08T19:45:52.265Z,97.51
2022-12-08T19:50:53.785Z,97.56
2022-12-08T19:55:55.257Z,97.64
2022-12-08T20:00:56.874Z,97.81
2022-12-08T20:05:58.375Z,97.85
2022-12-08T20:10:59.875Z,98.26
2022-12-08T20:16:01.443Z,98.04
2022-12-08T20:21:03.832Z,98.24
2022-12-08T20:26:08.312Z,98.45
2022-12-08T20:31:18.165Z,98.30
2022-12-08T20:36:21.870Z,98.62
2022-12-08T20:41:23.706Z,98.47
2022-12-08T20:46:25.310Z,98.69
2022-12-08T20:51:31.896Z,98.40
2022-12-08T20:56:34.098Z,98.27
2022-12-08T21:01:35.846Z,98.53
2022-12-08T21:06:37.742Z,98.79
2022-12-08T21:11:40.183Z,98.69
2022-12-08T21:16:42.134Z,99.05
2022-12-08T21:21:45.796Z,98.67
2022-12-08T21:26:48.035Z,98.51
2022-12-08T21:31:50.276Z,98.48
2022-12-08T21:36:52.939Z,98.61
2022-12-08T21:42:13.698Z,99.00
2022-12-08T21:47:15.972Z,98.56
2022-12-08T21:52:17.580Z,98.93
2022-12-08T21:57:19.341Z,98.87
2022-12-08T22:02:22.832Z,99.01
2022-12-08T22:07:24.777Z,98.76
2022-12-08T22:12:26.739Z,98.88
2022-12-08T22:17:28.987Z,98.70
2022-12-08T22:22:33.633Z,98.45
2022-12-08T22:27:35.149Z,98.53
2022-12-08T22:32:37.171Z,98.60
2022-12-08T22:37:38.982Z,98.32
2022-12-08T22:42:41.224Z,98.53
2022-12-08T22:47:42.871Z,98.60
2022-12-08T22:52:44.504Z,98.64
2022-12-08T22:57:46.741Z,98.42
2022-12-08T23:02:48.609Z,98.02
2022-12-08T23:07:50.883Z,97.91
2022-12-08T23:12:53.273Z,98.06
2022-12-08T23:17:55.008Z,97.55
2022-12-08T23:22:56.840Z,97.53
2022-12-08T23:27:58.843Z,97.65
2022-12-08T23:33:00.641Z,97.51
2022-12-08T23:38:02.497Z,97.52
2022-12-08T23:43:06.054Z,97.26
2022-12-08T23:48:07.531Z,97.27
2022-12-08T23:53:09.559Z,97.09
2022-12-08T23:58:11.644Z,97.04
